createdAt,value
2017-08-27T00:00:00.725Z,8.21
2017-08-27T00:01:10.994Z,8.03
2017-08-27T00:02:21.264Z,7.96
2017-08-27T00:03:31.528Z,8.03
2017-08-27T00:04:41.484Z,8.01
2017-08-27T00:05:51.424Z,7.88
2017-08-27T00:07:01.690Z,7.91
2017-08-27T00:08:11.636Z,7.77
2017-08-27T00:09:21.588Z,7.75
2017-08-27T00:10:31.852Z,7.75
2017-08-27T00:11:42.120Z,7.81
2017-08-27T00:12:52.389Z,7.72
2017-08-27T00:14:02.656Z,7.67
2017-08-27T00:15:12.921Z,7.7
2017-08-27T00:16:23.185Z,7.59
2017-08-27T00:17:33.475Z,7.56
2017-08-27T00:18:43.740Z,7.47
2017-08-27T00:19:53.685Z,7.39
2017-08-27T00:21:03.306Z,7.4
2017-08-27T00:22:12.928Z,7.43
2017-08-27T00:23:25.392Z,7.44
2017-08-27T00:24:35.338Z,7.51
2017-08-27T00:25:45.282Z,7.51
2017-08-27T00:26:55.544Z,7.58
2017-08-27T00:28:05.168Z,7.59
2017-08-27T00:29:15.452Z,7.5
2017-08-27T00:30:25.396Z,7.56
2017-08-27T00:31:35.659Z,7.53
2017-08-27T00:32:44.639Z,7.46
2017-08-27T00:33:54.911Z,7.39
2017-08-27T00:35:05.180Z,7.37
2017-08-27T00:36:15.447Z,7.43
2017-08-27T00:37:25.390Z,7.4
2017-08-27T00:38:35.336Z,7.26
2017-08-27T00:39:45.607Z,7.29
2017-08-27T00:40:55.868Z,7.22
2017-08-27T00:42:05.813Z,7.23
2017-08-27T00:43:15.442Z,7.32
2017-08-27T00:44:25.385Z,7.31
2017-08-27T00:45:35.329Z,7.33
2017-08-27T00:46:45.589Z,7.32
2017-08-27T00:47:55.537Z,7.37
2017-08-27T00:49:05.803Z,7.32
2017-08-27T00:50:16.076Z,7.33
2017-08-27T00:51:25.697Z,7.39
2017-08-27T00:52:35.963Z,7.31
2017-08-27T00:53:46.226Z,7.28
2017-08-27T00:54:56.491Z,7.25
2017-08-27T00:56:06.112Z,7.19
2017-08-27T00:57:16.380Z,7.23
2017-08-27T00:58:26.643Z,7.37
2017-08-27T00:59:36.587Z,7.29
2017-08-27T01:00:46.848Z,7.22
2017-08-27T01:01:57.110Z,7.19
2017-08-27T01:03:07.396Z,7.22
2017-08-27T01:04:17.663Z,7.15
2017-08-27T01:05:27.605Z,7.22
2017-08-27T01:06:37.549Z,7.13
2017-08-27T01:07:47.814Z,7.1
2017-08-27T01:08:57.758Z,7.03
2017-08-27T01:10:08.022Z,7.04
2017-08-27T01:11:18.286Z,7.05
2017-08-27T01:12:28.558Z,7.03
2017-08-27T01:13:38.821Z,7.1
2017-08-27T01:14:49.091Z,6.97
2017-08-27T01:15:59.352Z,6.97
2017-08-27T01:17:09.616Z,7
2017-08-27T01:18:19.882Z,6.93
2017-08-27T01:19:29.838Z,6.83
2017-08-27T01:20:39.779Z,6.95
2017-08-27T01:21:50.044Z,6.96
2017-08-27T01:23:00.305Z,6.89
2017-08-27T01:24:10.574Z,6.83
2017-08-27T01:25:20.837Z,6.83
2017-08-27T01:26:31.113Z,6.78
2017-08-27T01:27:41.374Z,6.86
2017-08-27T01:28:51.316Z,6.75
2017-08-27T01:30:01.255Z,6.77
2017-08-27T01:31:11.531Z,6.75
2017-08-27T01:32:21.472Z,6.82
2017-08-27T01:33:31.092Z,6.77
2017-08-27T01:34:41.047Z,6.87
2017-08-27T01:35:51.317Z,6.82
2017-08-27T01:37:01.267Z,6.72
2017-08-27T01:38:10.565Z,6.8
2017-08-27T01:39:20.828Z,6.77
2017-08-27T01:40:31.095Z,6.71
2017-08-27T01:41:41.360Z,6.68
2017-08-27T01:42:51.302Z,6.57
2017-08-27T01:44:01.592Z,6.67
2017-08-27T01:45:11.533Z,6.62
2017-08-27T01:46:21.801Z,6.57
2017-08-27T01:47:32.066Z,6.54
2017-08-27T01:48:42.357Z,6.57
2017-08-27T01:49:52.623Z,6.57
2017-08-27T01:51:02.566Z,6.5
2017-08-27T01:52:12.835Z,6.44
2017-08-27T01:53:22.454Z,6.49
2017-08-27T01:54:32.400Z,6.46
2017-08-27T01:55:42.659Z,6.46
2017-08-27T01:56:52.929Z,6.43
2017-08-27T01:58:02.871Z,6.34
2017-08-27T01:59:13.136Z,6.35
2017-08-27T02:00:23.077Z,6.41
2017-08-27T02:01:33.348Z,6.36
2017-08-27T02:02:48.380Z,6.41
2017-08-27T02:03:58.002Z,6.38
2017-08-27T02:05:08.270Z,6.35
2017-08-27T02:06:18.533Z,6.17
2017-08-27T02:07:27.509Z,6.28
2017-08-27T02:08:37.700Z,6.22
2017-08-27T02:09:47.975Z,6.1
2017-08-27T02:10:58.244Z,6.05
2017-08-27T02:12:07.540Z,6.13
2017-08-27T02:13:17.803Z,6.05
2017-08-27T02:14:31.415Z,6.07
2017-08-27T02:15:41.041Z,6.07
2017-08-27T02:16:51.305Z,6.09
2017-08-27T02:18:01.571Z,6.1
2017-08-27T02:19:11.516Z,6.02
2017-08-27T02:20:21.779Z,6.1
2017-08-27T02:21:31.720Z,6.15
2017-08-27T02:22:41.984Z,6.13
2017-08-27T02:23:52.244Z,6.13
2017-08-27T02:25:02.185Z,6.13
2017-08-27T02:26:12.696Z,6.2
2017-08-27T02:27:22.964Z,6.26
2017-08-27T02:28:33.238Z,6.19
2017-08-27T02:29:43.499Z,6.22
2017-08-27T02:30:53.466Z,6.17
2017-08-27T02:32:03.737Z,6.28
2017-08-27T02:33:14.018Z,6.26
2017-08-27T02:34:24.295Z,6.22
2017-08-27T02:35:34.235Z,6.25
2017-08-27T02:36:44.512Z,6.36
2017-08-27T02:37:54.780Z,6.22
2017-08-27T02:39:04.403Z,6.2
2017-08-27T02:40:14.679Z,6.29
2017-08-27T02:41:24.947Z,6.17
2017-08-27T02:42:35.213Z,6.2
2017-08-27T02:43:45.155Z,6.2
2017-08-27T02:44:55.106Z,6.29
2017-08-27T02:46:05.423Z,6.25
2017-08-27T02:47:15.710Z,6.2
2017-08-27T02:48:25.983Z,6.25
2017-08-27T02:49:36.247Z,6.12
2017-08-27T02:50:46.193Z,6.1
2017-08-27T02:51:56.468Z,6.13
2017-08-27T02:53:06.413Z,6.15
2017-08-27T02:54:16.369Z,6.12
2017-08-27T02:55:26.321Z,6.16
2017-08-27T02:56:36.582Z,6.02
2017-08-27T02:57:46.846Z,6.05
2017-08-27T02:58:56.787Z,6.13
2017-08-27T03:00:06.731Z,6.12
2017-08-27T03:01:16.672Z,6.02
2017-08-27T03:02:26.937Z,6.01
2017-08-27T03:03:37.204Z,5.95
2017-08-27T03:04:47.146Z,6.01
2017-08-27T03:05:57.409Z,6.05
2017-08-27T03:07:07.350Z,5.98
2017-08-27T03:08:17.292Z,6.07
2017-08-27T03:09:27.234Z,6.02
2017-08-27T03:10:37.503Z,6.07
2017-08-27T03:11:47.761Z,6.05
2017-08-27T03:12:58.025Z,6.1
2017-08-27T03:14:07.646Z,6.09
2017-08-27T03:15:17.920Z,6.13
2017-08-27T03:16:28.187Z,6.09
2017-08-27T03:17:38.449Z,6.05
2017-08-27T03:18:48.388Z,6.05
2017-08-27T03:19:58.654Z,6.26
2017-08-27T03:21:08.917Z,6.35
2017-08-27T03:22:18.859Z,6.36
2017-08-27T03:23:29.121Z,6.57
2017-08-27T03:24:39.066Z,6.87
2017-08-27T03:25:49.009Z,6.89
2017-08-27T03:26:58.966Z,7.08
2017-08-27T03:28:09.229Z,7.08
2017-08-27T03:29:19.171Z,7.19
2017-08-27T03:30:29.120Z,7.19
2017-08-27T03:31:39.069Z,7.28
2017-08-27T03:32:49.335Z,7.28
2017-08-27T03:33:59.596Z,7.31
2017-08-27T03:35:09.861Z,7.4
2017-08-27T03:36:20.122Z,7.41
2017-08-27T03:37:30.384Z,7.53
2017-08-27T03:38:40.325Z,7.53
2017-08-27T03:39:49.949Z,7.59
2017-08-27T03:40:59.894Z,7.64
2017-08-27T03:42:10.155Z,7.67
2017-08-27T03:43:20.417Z,7.74
2017-08-27T03:44:30.682Z,7.72
2017-08-27T03:45:40.626Z,7.67
2017-08-27T03:46:50.888Z,7.74
2017-08-27T03:48:01.153Z,7.66
2017-08-27T03:49:11.419Z,7.78
2017-08-27T03:50:21.680Z,7.78
2017-08-27T03:51:31.948Z,7.83
2017-08-27T03:52:42.216Z,7.81
2017-08-27T03:53:51.837Z,7.85
2017-08-27T03:55:01.786Z,7.8
2017-08-27T03:56:11.734Z,7.77
2017-08-27T03:57:21.996Z,7.84
2017-08-27T03:58:32.269Z,7.84
2017-08-27T03:59:42.535Z,7.85
2017-08-27T04:00:52.799Z,7.8
2017-08-27T04:02:03.068Z,7.83
2017-08-27T04:03:13.019Z,7.75
2017-08-27T04:04:22.968Z,7.75
2017-08-27T04:05:32.911Z,7.74
2017-08-27T04:06:43.176Z,7.67
2017-08-27T04:07:52.795Z,7.67
2017-08-27T04:09:03.065Z,7.72
2017-08-27T04:10:13.344Z,7.64
2017-08-27T04:11:23.606Z,7.72
2017-08-27T04:12:33.552Z,7.7
2017-08-27T04:13:43.813Z,7.7
2017-08-27T04:14:54.078Z,7.66
2017-08-27T04:16:04.033Z,7.7
2017-08-27T04:17:14.312Z,7.72
2017-08-27T04:18:24.576Z,7.72
2017-08-27T04:19:34.847Z,7.8
2017-08-27T04:20:45.110Z,7.67
2017-08-27T04:21:55.383Z,7.7
2017-08-27T04:23:05.647Z,7.67
2017-08-27T04:24:15.914Z,7.66
2017-08-27T04:25:25.537Z,7.66
2017-08-27T04:26:35.801Z,7.69
2017-08-27T04:27:46.068Z,7.67
2017-08-27T04:28:56.338Z,7.7
2017-08-27T04:30:06.280Z,7.66
2017-08-27T04:31:16.222Z,7.69
2017-08-27T04:32:26.514Z,7.69
2017-08-27T04:33:36.780Z,7.7
2017-08-27T04:34:47.046Z,7.74
2017-08-27T04:35:57.316Z,7.69
2017-08-27T04:37:07.579Z,7.78
2017-08-27T04:38:17.845Z,7.8
2017-08-27T04:39:27.465Z,7.83
2017-08-27T04:40:37.411Z,7.75
2017-08-27T04:41:47.351Z,7.91
2017-08-27T04:42:57.628Z,7.81
2017-08-27T04:44:07.894Z,7.87
2017-08-27T04:45:18.161Z,7.81
2017-08-27T04:46:28.104Z,7.75
2017-08-27T04:47:38.368Z,7.77
2017-08-27T04:48:47.999Z,7.81
2017-08-27T04:49:58.261Z,7.85
2017-08-27T04:51:08.207Z,7.8
2017-08-27T04:52:18.481Z,7.83
2017-08-27T04:53:28.428Z,7.78
2017-08-27T04:54:38.049Z,7.77
2017-08-27T04:55:48.316Z,7.84
2017-08-27T04:56:57.617Z,7.75
2017-08-27T04:58:07.568Z,7.83
2017-08-27T04:59:17.509Z,7.77
2017-08-27T05:00:27.453Z,7.84
2017-08-27T05:01:37.742Z,7.75
2017-08-27T05:02:48.005Z,7.9
2017-08-27T05:03:58.273Z,7.88
2017-08-27T05:05:07.895Z,7.93
2017-08-27T05:06:18.188Z,7.87
2017-08-27T05:07:28.130Z,7.85
2017-08-27T05:08:38.401Z,7.84
2017-08-27T05:09:48.677Z,7.9
2017-08-27T05:10:58.626Z,7.91
2017-08-27T05:12:08.581Z,7.84
2017-08-27T05:13:18.533Z,7.88
2017-08-27T05:14:28.799Z,7.91
2017-08-27T05:15:38.755Z,7.88
2017-08-27T05:16:49.019Z,7.91
2017-08-27T05:17:59.315Z,7.88
2017-08-27T05:19:09.265Z,7.95
2017-08-27T05:20:19.216Z,7.95
2017-08-27T05:21:29.487Z,7.9
2017-08-27T05:22:39.756Z,7.85
2017-08-27T05:23:50.026Z,7.9
2017-08-27T05:25:00.317Z,7.85
2017-08-27T05:26:10.590Z,7.8
2017-08-27T05:27:20.859Z,7.78
2017-08-27T05:28:31.129Z,7.83
2017-08-27T05:29:41.393Z,7.72
2017-08-27T05:30:51.658Z,7.78
2017-08-27T05:32:01.960Z,7.78
2017-08-27T05:33:11.918Z,7.75
2017-08-27T05:34:22.183Z,7.85
2017-08-27T05:35:32.457Z,7.78
2017-08-27T05:36:42.413Z,7.78
2017-08-27T05:37:52.360Z,7.81
2017-08-27T05:39:02.633Z,7.83
2017-08-27T05:40:12.584Z,7.77
2017-08-27T05:41:22.846Z,7.8
2017-08-27T05:42:32.793Z,7.72
2017-08-27T05:43:42.742Z,7.83
2017-08-27T05:44:53.006Z,7.91
2017-08-27T05:46:02.953Z,7.96
2017-08-27T05:47:13.224Z,7.87
2017-08-27T05:48:23.496Z,7.91
2017-08-27T05:49:33.760Z,7.99
2017-08-27T05:50:44.026Z,8.01
2017-08-27T05:51:54.289Z,8.03
2017-08-27T05:53:04.554Z,8.06
2017-08-27T05:54:14.816Z,8.11
2017-08-27T05:55:25.084Z,8.06
2017-08-27T05:56:35.349Z,8.2
2017-08-27T05:57:45.294Z,8.21
2017-08-27T05:58:55.557Z,8.2
2017-08-27T06:00:05.827Z,8.23
2017-08-27T06:01:16.090Z,8.21
2017-08-27T06:02:26.039Z,8.26
2017-08-27T06:03:36.312Z,8.36
2017-08-27T06:04:46.270Z,8.39
2017-08-27T06:05:55.570Z,8.41
2017-08-27T06:07:05.844Z,8.5
2017-08-27T06:08:16.108Z,8.45
2017-08-27T06:09:26.052Z,8.5
2017-08-27T06:10:36.317Z,8.59
2017-08-27T06:11:46.591Z,8.56
2017-08-27T06:12:56.858Z,8.64
2017-08-27T06:14:07.124Z,8.66
2017-08-27T06:15:17.389Z,8.75
2017-08-27T06:16:27.657Z,8.77
2017-08-27T06:17:37.928Z,8.84
2017-08-27T06:18:47.557Z,8.77
2017-08-27T06:19:57.181Z,8.86
2017-08-27T06:21:07.447Z,8.81
2017-08-27T06:22:17.393Z,8.87
2017-08-27T06:23:27.342Z,8.92
2017-08-27T06:24:37.612Z,8.99
2017-08-27T06:25:47.874Z,9.03
2017-08-27T06:26:57.816Z,9.09
2017-08-27T06:28:07.440Z,9
2017-08-27T06:29:17.721Z,9.03
2017-08-27T06:30:27.663Z,9.09
2017-08-27T06:31:37.931Z,9.13
2017-08-27T06:32:47.875Z,9.13
2017-08-27T06:33:57.820Z,9.18
2017-08-27T06:35:08.088Z,9.27
2017-08-27T06:36:18.354Z,9.29
2017-08-27T06:37:27.989Z,9.22
2017-08-27T06:38:38.255Z,9.37
2017-08-27T06:39:48.523Z,9.36
2017-08-27T06:40:58.800Z,9.34
2017-08-27T06:42:08.101Z,9.49
2017-08-27T06:43:18.398Z,9.44
2017-08-27T06:44:28.341Z,9.49
2017-08-27T06:45:38.612Z,9.49
2017-08-27T06:46:48.234Z,9.48
2017-08-27T06:47:58.503Z,9.54
2017-08-27T06:49:08.777Z,9.58
2017-08-27T06:50:19.041Z,9.66
2017-08-27T06:51:29.010Z,9.66
2017-08-27T06:52:39.278Z,9.64
2017-08-27T06:53:49.224Z,9.77
2017-08-27T06:54:59.496Z,9.77
2017-08-27T06:56:09.765Z,9.77
2017-08-27T06:57:20.031Z,9.8
2017-08-27T06:58:30.296Z,9.77
2017-08-27T06:59:40.569Z,9.9
2017-08-27T07:00:50.835Z,9.9
2017-08-27T07:02:01.101Z,9.92
2017-08-27T07:03:11.045Z,10
2017-08-27T07:04:21.311Z,10
2017-08-27T07:05:31.262Z,10.09
2017-08-27T07:06:41.527Z,10.07
2017-08-27T07:07:51.473Z,10.12
2017-08-27T07:09:01.421Z,10.13
2017-08-27T07:10:11.367Z,10.21
2017-08-27T07:11:21.643Z,10.17
2017-08-27T07:12:31.589Z,10.21
2017-08-27T07:13:41.861Z,10.24
2017-08-27T07:14:51.827Z,10.23
2017-08-27T07:16:02.095Z,10.28
2017-08-27T07:17:12.367Z,10.23
2017-08-27T07:18:22.318Z,10.28
2017-08-27T07:19:32.267Z,10.38
2017-08-27T07:20:41.892Z,10.34
2017-08-27T07:21:52.173Z,10.39
2017-08-27T07:23:02.440Z,10.46
2017-08-27T07:24:12.385Z,10.43
2017-08-27T07:25:22.652Z,10.51
2017-08-27T07:26:32.924Z,10.62
2017-08-27T07:27:42.552Z,10.53
2017-08-27T07:28:52.497Z,10.61
2017-08-27T07:30:02.770Z,10.65
2017-08-27T07:31:13.038Z,10.68
2017-08-27T07:32:22.662Z,10.69
2017-08-27T07:33:32.928Z,10.67
2017-08-27T07:34:43.195Z,10.75
2017-08-27T07:35:52.822Z,10.79
2017-08-27T07:37:03.089Z,10.83
2017-08-27T07:38:12.713Z,10.84
2017-08-27T07:39:22.657Z,10.94
2017-08-27T07:40:32.925Z,10.97
2017-08-27T07:41:43.200Z,10.95
2017-08-27T07:42:53.468Z,11
2017-08-27T07:44:03.744Z,11.02
2017-08-27T07:45:13.377Z,10.97
2017-08-27T07:46:23.324Z,10.86
2017-08-27T07:47:33.590Z,11.01
2017-08-27T07:48:43.535Z,10.89
2017-08-27T07:49:53.806Z,10.98
2017-08-27T07:51:03.755Z,10.98
2017-08-27T07:52:13.711Z,11.01
2017-08-27T07:53:23.997Z,11.04
2017-08-27T07:54:33.622Z,11.08
2017-08-27T07:55:43.929Z,11.08
2017-08-27T07:56:54.198Z,11.12
2017-08-27T07:58:04.146Z,11.19
2017-08-27T07:59:14.420Z,11.33
2017-08-27T08:00:24.366Z,11.26
2017-08-27T08:01:34.642Z,11.31
2017-08-27T08:02:44.266Z,11.23
2017-08-27T08:03:54.220Z,11.33
2017-08-27T08:05:04.489Z,11.38
2017-08-27T08:06:14.438Z,11.48
2017-08-27T08:07:24.383Z,11.4
2017-08-27T08:08:34.666Z,11.41
2017-08-27T08:09:44.933Z,11.4
2017-08-27T08:10:55.201Z,11.51
2017-08-27T08:12:04.829Z,11.49
2017-08-27T08:13:14.460Z,11.49
2017-08-27T08:14:24.091Z,11.53
2017-08-27T08:15:34.363Z,11.6
2017-08-27T08:16:44.635Z,11.68
2017-08-27T08:17:54.587Z,11.58
2017-08-27T08:19:04.538Z,11.68
2017-08-27T08:20:14.810Z,11.8
2017-08-27T08:21:24.758Z,11.85
2017-08-27T08:22:35.024Z,11.89
2017-08-27T08:23:44.977Z,11.93
2017-08-27T08:24:54.924Z,12.05
2017-08-27T08:26:05.193Z,12.12
2017-08-27T08:27:15.484Z,12.12
2017-08-27T08:28:25.431Z,12.18
2017-08-27T08:29:35.379Z,12.25
2017-08-27T08:30:45.329Z,12.28
2017-08-27T08:31:55.598Z,12.36
2017-08-27T08:33:05.864Z,12.4
2017-08-27T08:34:16.134Z,12.4
2017-08-27T08:35:26.414Z,12.54
2017-08-27T08:36:36.039Z,12.53
2017-08-27T08:37:46.311Z,12.61
2017-08-27T08:38:56.269Z,12.66
2017-08-27T08:40:06.214Z,12.68
2017-08-27T08:41:16.484Z,12.66
2017-08-27T08:42:26.432Z,12.73
2017-08-27T08:43:36.381Z,12.84
2017-08-27T08:44:46.330Z,12.81
2017-08-27T08:45:56.281Z,12.93
2017-08-27T08:47:06.231Z,12.88
2017-08-27T08:48:16.505Z,12.91
2017-08-27T08:49:26.459Z,12.87
2017-08-27T08:50:36.404Z,12.84
2017-08-27T08:51:46.355Z,12.86
2017-08-27T08:52:56.305Z,12.76
2017-08-27T08:54:06.253Z,12.63
2017-08-27T08:55:16.548Z,12.8
2017-08-27T08:56:26.818Z,12.84
2017-08-27T08:57:36.776Z,12.87
2017-08-27T08:58:47.044Z,12.94
2017-08-27T08:59:56.999Z,12.95
2017-08-27T09:01:06.625Z,13.11
2017-08-27T09:02:16.906Z,13.13
2017-08-27T09:03:27.171Z,13.2
2017-08-27T09:04:37.126Z,13.26
2017-08-27T09:05:47.077Z,13.23
2017-08-27T09:06:57.027Z,13.27
2017-08-27T09:08:07.298Z,13.09
2017-08-27T09:09:17.572Z,13.27
2017-08-27T09:10:27.841Z,13.31
2017-08-27T09:11:38.109Z,13.3
2017-08-27T09:12:48.388Z,13.27
2017-08-27T09:13:58.344Z,13.37
2017-08-27T09:15:08.612Z,13.39
2017-08-27T09:16:18.882Z,13.49
2017-08-27T09:17:29.147Z,13.5
2017-08-27T09:18:39.103Z,13.62
2017-08-27T09:19:49.370Z,13.68
2017-08-27T09:20:59.330Z,13.62
2017-08-27T09:22:09.278Z,13.75
2017-08-27T09:23:19.226Z,13.79
2017-08-27T09:24:29.539Z,13.85
2017-08-27T09:25:39.166Z,13.82
2017-08-27T09:26:48.793Z,13.8
2017-08-27T09:27:58.741Z,13.87
2017-08-27T09:29:09.012Z,13.86
2017-08-27T09:30:18.962Z,14
2017-08-27T09:31:29.263Z,13.94
2017-08-27T09:32:39.534Z,14.12
2017-08-27T09:33:49.161Z,14.05
2017-08-27T09:34:59.435Z,14.05
2017-08-27T09:36:09.708Z,14.16
2017-08-27T09:37:19.975Z,14.22
2017-08-27T09:38:30.286Z,14.22
2017-08-27T09:39:40.239Z,14.25
2017-08-27T09:40:50.518Z,14.36
2017-08-27T09:42:00.464Z,14.33
2017-08-27T09:43:10.097Z,14.3
2017-08-27T09:44:20.045Z,14.26
2017-08-27T09:45:29.393Z,14.38
2017-08-27T09:46:39.668Z,14.28
2017-08-27T09:47:49.311Z,14.43
2017-08-27T09:48:59.577Z,14.4
2017-08-27T09:50:09.528Z,14.38
2017-08-27T09:51:19.797Z,14.41
2017-08-27T09:52:30.069Z,14.38
2017-08-27T09:53:40.349Z,14.41
2017-08-27T09:54:50.305Z,14.41
2017-08-27T09:56:00.256Z,14.28
2017-08-27T09:57:10.529Z,14.38
2017-08-27T09:58:20.799Z,14.38
2017-08-27T09:59:30.752Z,14.58
2017-08-27T10:00:40.699Z,14.58
2017-08-27T10:01:50.651Z,14.67
2017-08-27T10:03:00.600Z,14.67
2017-08-27T10:04:10.556Z,14.71
2017-08-27T10:05:20.828Z,14.66
2017-08-27T10:06:31.101Z,14.74
2017-08-27T10:07:41.393Z,14.78
2017-08-27T10:08:51.672Z,14.9
2017-08-27T10:10:01.300Z,14.92
2017-08-27T10:11:11.256Z,14.96
2017-08-27T10:12:21.525Z,14.96
2017-08-27T10:13:31.796Z,15.08
2017-08-27T10:14:42.080Z,15.17
2017-08-27T10:15:52.028Z,15.14
2017-08-27T10:17:01.981Z,15.22
2017-08-27T10:18:12.255Z,15.35
2017-08-27T10:19:22.204Z,15.32
2017-08-27T10:20:32.477Z,15.33
2017-08-27T10:21:42.756Z,15.39
2017-08-27T10:22:52.705Z,15.44
2017-08-27T10:24:02.653Z,15.47
2017-08-27T10:25:12.934Z,15.51
2017-08-27T10:26:23.205Z,15.62
2017-08-27T10:27:33.169Z,15.62
2017-08-27T10:28:43.443Z,15.67
2017-08-27T10:29:53.719Z,15.8
2017-08-27T10:31:03.673Z,15.75
2017-08-27T10:32:13.301Z,15.81
2017-08-27T10:33:23.252Z,15.85
2017-08-27T10:34:33.212Z,15.81
2017-08-27T10:35:43.487Z,15.91
2017-08-27T10:36:53.438Z,16.03
2017-08-27T10:38:03.715Z,15.9
2017-08-27T10:39:13.994Z,16.02
2017-08-27T10:40:23.947Z,16.02
2017-08-27T10:41:33.895Z,16.02
2017-08-27T10:42:44.176Z,16.08
2017-08-27T10:43:54.128Z,16.17
2017-08-27T10:45:03.758Z,16.16
2017-08-27T10:46:14.037Z,16.32
2017-08-27T10:47:23.993Z,16.29
2017-08-27T10:48:33.620Z,16.32
2017-08-27T10:49:43.573Z,16.41
2017-08-27T10:50:53.531Z,16.54
2017-08-27T10:52:03.807Z,16.62
2017-08-27T10:53:13.768Z,16.65
2017-08-27T10:54:23.724Z,16.65
2017-08-27T10:55:33.996Z,16.72
2017-08-27T10:56:43.949Z,16.77
2017-08-27T10:57:54.226Z,16.74
2017-08-27T10:59:04.504Z,16.83
2017-08-27T11:00:14.457Z,16.89
2017-08-27T11:01:24.732Z,16.92
2017-08-27T11:02:35.010Z,17.07
2017-08-27T11:03:45.285Z,17.09
2017-08-27T11:04:55.262Z,17.14
2017-08-27T11:06:05.219Z,17.2
2017-08-27T11:07:15.170Z,17.31
2017-08-27T11:08:25.133Z,17.31
2017-08-27T11:09:35.081Z,17.27
2017-08-27T11:10:45.349Z,17.34
2017-08-27T11:11:55.312Z,17.41
2017-08-27T11:13:05.591Z,17.47
2017-08-27T11:14:15.888Z,17.5
2017-08-27T11:15:25.843Z,17.53
2017-08-27T11:16:36.122Z,17.8
2017-08-27T11:17:46.395Z,17.9
2017-08-27T11:18:56.672Z,18.23
2017-08-27T11:20:06.942Z,18.63
2017-08-27T11:21:17.226Z,19.15
2017-08-27T11:22:27.501Z,19.66
2017-08-27T11:23:37.773Z,20.29
2017-08-27T11:24:48.050Z,20.7
2017-08-27T11:25:58.003Z,21.3
2017-08-27T11:27:07.958Z,21.7
2017-08-27T11:28:18.234Z,22.19
2017-08-27T11:29:28.190Z,22.53
2017-08-27T11:30:38.145Z,23.07
2017-08-27T11:31:48.426Z,23.42
2017-08-27T11:32:58.385Z,23.88
2017-08-27T11:34:08.342Z,24.24
2017-08-27T11:35:18.308Z,24.55
2017-08-27T11:36:28.584Z,24.93
2017-08-27T11:37:38.544Z,25.21
2017-08-27T11:38:48.828Z,25.56
2017-08-27T11:39:58.794Z,25.85
2017-08-27T11:41:09.080Z,26.16
2017-08-27T11:42:19.368Z,26.44
2017-08-27T11:43:29.327Z,26.78
2017-08-27T11:44:39.609Z,26.97
2017-08-27T11:45:49.890Z,27.13
2017-08-27T11:47:00.170Z,27.45
2017-08-27T11:48:10.136Z,27.67
2017-08-27T11:49:19.454Z,28.1
2017-08-27T11:50:29.739Z,28.27
2017-08-27T11:51:39.715Z,28.47
2017-08-27T11:52:49.678Z,28.55
2017-08-27T11:53:59.963Z,29
2017-08-27T11:55:10.249Z,29.22
2017-08-27T11:56:20.543Z,29.47
2017-08-27T11:57:30.507Z,29.68
2017-08-27T11:58:40.794Z,29.83
2017-08-27T11:59:50.757Z,30.03
2017-08-27T12:01:01.041Z,30.23
2017-08-27T12:02:10.686Z,30.23
2017-08-27T12:03:20.648Z,30.54
2017-08-27T12:04:30.933Z,30.63
2017-08-27T12:05:40.576Z,30.67
2017-08-27T12:06:50.861Z,30.8
2017-08-27T12:08:00.824Z,31.08
2017-08-27T12:09:10.790Z,31.04
2017-08-27T12:10:21.074Z,30.98
2017-08-27T12:11:31.381Z,30.93
2017-08-27T12:12:41.022Z,31.13
2017-08-27T12:13:51.308Z,31.23
2017-08-27T12:15:01.281Z,31.32
2017-08-27T12:16:11.027Z,31.44
2017-08-27T12:17:21.313Z,31.13
2017-08-27T12:18:30.964Z,31.18
2017-08-27T12:19:41.249Z,31.42
2017-08-27T12:20:51.537Z,31.42
2017-08-27T12:22:01.826Z,31.36
2017-08-27T12:23:12.115Z,31.45
2017-08-27T12:24:22.401Z,31.67
2017-08-27T12:25:32.689Z,31.62
2017-08-27T12:26:42.983Z,31.78
2017-08-27T12:27:52.956Z,31.87
2017-08-27T12:29:02.924Z,31.93
2017-08-27T12:30:13.212Z,31.93
2017-08-27T12:31:23.508Z,31.98
2017-08-27T12:32:33.473Z,31.73
2017-08-27T12:33:43.764Z,31.89
2017-08-27T12:34:53.422Z,32.07
2017-08-27T12:36:03.391Z,32.2
2017-08-27T12:37:13.372Z,32.41
2017-08-27T12:38:23.016Z,32.56
2017-08-27T12:39:32.990Z,32.73
2017-08-27T12:40:42.955Z,32.82
2017-08-27T12:41:53.251Z,32.72
2017-08-27T12:43:03.222Z,32.85
2017-08-27T12:44:13.214Z,32.78
2017-08-27T12:45:23.194Z,32.75
2017-08-27T12:46:33.162Z,32.72
2017-08-27T12:47:43.451Z,32.61
2017-08-27T12:48:53.740Z,32.59
2017-08-27T12:50:04.035Z,32.56
2017-08-27T12:51:13.682Z,32.35
2017-08-27T12:52:23.977Z,32.61
2017-08-27T12:53:34.267Z,32.71
2017-08-27T12:54:44.555Z,32.75
2017-08-27T12:55:54.848Z,33
2017-08-27T12:57:05.136Z,33.13
2017-08-27T12:58:15.120Z,33.29
2017-08-27T12:59:25.409Z,33.29
2017-08-27T13:00:35.389Z,33.26
2017-08-27T13:01:45.678Z,33.15
2017-08-27T13:02:55.644Z,32.91
2017-08-27T13:04:05.934Z,33.04
2017-08-27T13:05:15.901Z,33.29
2017-08-27T13:06:26.192Z,33.2
2017-08-27T13:07:36.160Z,33.51
2017-08-27T13:08:46.125Z,33.54
2017-08-27T13:09:56.418Z,33.72
2017-08-27T13:11:06.711Z,33.87
2017-08-27T13:12:16.680Z,33.95
2017-08-27T13:13:26.647Z,34.13
2017-08-27T13:14:36.548Z,34.26
2017-08-27T13:15:46.515Z,34.59
2017-08-27T13:16:56.812Z,34.55
2017-08-27T13:18:07.105Z,34.41
2017-08-27T13:19:16.763Z,34.47
2017-08-27T13:20:26.416Z,34.46
2017-08-27T13:21:36.381Z,34.55
2017-08-27T13:22:46.359Z,34.75
2017-08-27T13:23:56.681Z,34.82
2017-08-27T13:25:06.971Z,35.04
2017-08-27T13:26:17.259Z,35.22
2017-08-27T13:27:27.550Z,35.38
2017-08-27T13:28:37.516Z,35.07
2017-08-27T13:29:47.805Z,34.89
2017-08-27T13:30:57.778Z,34.88
2017-08-27T13:32:08.068Z,34.82
2017-08-27T13:33:18.037Z,34.98
2017-08-27T13:34:28.339Z,34.91
2017-08-27T13:35:38.627Z,34.79
2017-08-27T13:36:48.918Z,35.19
2017-08-27T13:37:58.911Z,35.2
2017-08-27T13:39:09.213Z,35.3
2017-08-27T13:40:19.505Z,35.37
2017-08-27T13:41:29.476Z,35.2
2017-08-27T13:42:39.445Z,35.27
2017-08-27T13:43:49.417Z,35.39
2017-08-27T13:44:59.708Z,35.41
2017-08-27T13:46:09.675Z,35.35
2017-08-27T13:47:19.652Z,35.25
2017-08-27T13:48:29.947Z,35.31
2017-08-27T13:49:40.545Z,35.07
2017-08-27T13:50:50.840Z,35.1
2017-08-27T13:52:01.130Z,35.15
2017-08-27T13:53:11.424Z,34.91
2017-08-27T13:54:21.716Z,35.16
2017-08-27T13:55:32.004Z,35.22
2017-08-27T13:56:41.979Z,35.41
2017-08-27T13:57:51.948Z,35.39
2017-08-27T13:59:01.914Z,35.59
2017-08-27T14:00:11.890Z,35.68
2017-08-27T14:01:22.205Z,35.9
2017-08-27T14:02:32.492Z,35.96
2017-08-27T14:03:42.784Z,35.93
2017-08-27T14:04:53.076Z,35.78
2017-08-27T14:06:03.044Z,35.69
2017-08-27T14:07:12.691Z,35.52
2017-08-27T14:08:22.338Z,35.34
2017-08-27T14:09:32.305Z,35.16
2017-08-27T14:10:42.276Z,34.91
2017-08-27T14:11:52.568Z,35.18
2017-08-27T14:13:02.862Z,35.2
2017-08-27T14:14:13.153Z,35.49
2017-08-27T14:15:23.122Z,35.35
2017-08-27T14:16:33.415Z,35.2
2017-08-27T14:17:43.704Z,35.42
2017-08-27T14:18:53.670Z,35.49
2017-08-27T14:20:03.960Z,35.72
2017-08-27T14:21:14.258Z,35.49
2017-08-27T14:22:24.235Z,35.69
2017-08-27T14:23:34.530Z,35.66
2017-08-27T14:24:44.821Z,35.86
2017-08-27T14:25:54.795Z,35.81
2017-08-27T14:27:05.088Z,35.98
2017-08-27T14:28:15.380Z,36.09
2017-08-27T14:29:25.350Z,35.84
2017-08-27T14:30:35.320Z,36.01
2017-08-27T14:31:45.291Z,36.33
2017-08-27T14:32:55.588Z,36.63
2017-08-27T14:34:05.234Z,36.55
2017-08-27T14:35:15.538Z,36.54
2017-08-27T14:36:25.830Z,36.33
2017-08-27T14:37:35.802Z,36.38
2017-08-27T14:38:45.769Z,36.11
2017-08-27T14:39:55.769Z,36.17
2017-08-27T14:41:06.069Z,36.05
2017-08-27T14:42:16.361Z,35.94
2017-08-27T14:43:26.328Z,35.93
2017-08-27T14:44:35.974Z,36.13
2017-08-27T14:45:45.945Z,36.29
2017-08-27T14:46:55.915Z,36.41
2017-08-27T14:48:06.207Z,36.32
2017-08-27T14:49:16.510Z,36.35
2017-08-27T14:50:26.800Z,36.51
2017-08-27T14:51:36.454Z,36.55
2017-08-27T14:52:46.423Z,36.41
2017-08-27T14:53:56.725Z,36.48
2017-08-27T14:55:06.699Z,36.48
2017-08-27T14:56:16.990Z,36.66
2017-08-27T14:57:26.965Z,36.63
2017-08-27T14:58:37.253Z,36.44
2017-08-27T14:59:47.218Z,36.41
2017-08-27T15:00:57.517Z,36.25
2017-08-27T15:02:07.493Z,36.44
2017-08-27T15:03:17.804Z,36.62
2017-08-27T15:04:28.096Z,36.66
2017-08-27T15:05:38.066Z,36.62
2017-08-27T15:06:48.358Z,36.47
2017-08-27T15:07:58.647Z,36.28
2017-08-27T15:09:08.295Z,36.41
2017-08-27T15:10:18.589Z,36.5
2017-08-27T15:11:28.237Z,36.57
2017-08-27T15:12:38.532Z,36.29
2017-08-27T15:13:48.820Z,36.24
2017-08-27T15:14:59.112Z,36.44
2017-08-27T15:16:09.410Z,36.63
2017-08-27T15:17:19.377Z,36.54
2017-08-27T15:18:29.345Z,36.65
2017-08-27T15:19:39.007Z,36.62